Time;durP1;ratioP1;P1;durP2;ratioP2;P2;SDS_P1;SDS_P2;PMS_P1;PMS_P2;Temp;Humidity;BMP_temperature;BMP_pressure;BME280_temperature;BME280_humidity;BME280_pressure;Samples;Min_cycle;Max_cycle;Signal;HPM_P1;HPM_P2
2022/05/23 00:02:06;;;;;;;6.88;3.13;;;;;;;;;;5052691;28;20472;-44
2022/05/23 00:04:32;;;;;;;6.28;2.90;;;;;;;;;;5053072;28;20029;-43
2022/05/23 00:06:59;;;;;;;5.03;1.92;;;;;;;;;;5052744;28;20139;-44
2022/05/23 00:09:25;;;;;;;12.13;2.20;;;;;;;;;;5051473;28;20581;-43
2022/05/23 00:11:51;;;;;;;9.45;1.85;;;;;;;;;;5052248;28;20196;-43
2022/05/23 00:14:18;;;;;;;8.63;2.20;;;;;;;;;;5052535;28;20032;-44
2022/05/23 00:16:46;;;;;;;7.22;2.08;;;;;;;;;;5049676;28;20033;-44
2022/05/23 00:19:12;;;;;;;4.30;1.73;;;;;;;;;;5052300;28;20068;-44
2022/05/23 00:21:40;;;;;;;7.80;1.85;;;;;;;;;;5052374;28;20039;-45
2022/05/23 00:24:07;;;;;;;13.32;2.03;;;;;;;;;;5052223;28;20040;-44
2022/05/23 00:26:33;;;;;;;47.90;28.23;;;;;;;;;;5052167;28;20060;-44
2022/05/23 00:28:59;;;;;;;108.43;65.20;;;;;;;;;;5052339;28;20032;-45
2022/05/23 00:31:25;;;;;;;82.88;41.75;;;;;;;;;;5052164;28;20577;-44
2022/05/23 00:36:36;;;;;;;23.27;13.32;;;;;;;;;;5049885;28;20090;-45
2022/05/23 00:39:03;;;;;;;8.98;5.63;;;;;;;;;;5052011;28;20055;-45
2022/05/23 00:44:24;;;;;;;30.80;22.33;;;;;;;;;;5052057;28;20435;-45
2022/05/23 00:46:55;;;;;;;39.17;31.52;;;;;;;;;;5049517;28;20020;-44
2022/05/23 00:49:23;;;;;;;16.00;13.32;;;;;;;;;;5051578;28;20021;-45
2022/05/23 00:51:50;;;;;;;11.27;4.22;;;;;;;;;;5050816;28;20028;-45
2022/05/23 00:54:23;;;;;;;18.20;3.90;;;;;;;;;;5068503;28;20032;-44
2022/05/23 00:56:51;;;;;;;7.82;2.08;;;;;;;;;;5075545;28;20460;-44
2022/05/23 00:59:19;;;;;;;5.10;1.85;;;;;;;;;;5074705;28;20472;-45
2022/05/23 01:01:45;;;;;;;6.03;1.85;;;;;;;;;;5075163;28;20024;-44
2022/05/23 01:04:12;;;;;;;2.47;1.60;;;;;;;;;;5075391;28;20100;-44
2022/05/23 01:06:40;;;;;;;3.03;1.40;;;;;;;;;;5075356;28;20041;-44
2022/05/23 01:09:09;;;;;;;5.47;1.60;;;;;;;;;;5075267;28;20029;-44
2022/05/23 01:11:35;;;;;;;4.30;1.30;;;;;;;;;;5074941;28;20040;-44
2022/05/23 01:14:01;;;;;;;5.45;1.60;;;;;;;;;;5075335;28;20031;-44
2022/05/23 01:16:27;;;;;;;6.57;3.40;;;;;;;;;;5067449;28;20021;-44
2022/05/23 01:18:53;;;;;;;12.68;8.23;;;;;;;;;;5054573;28;20033;-44
2022/05/23 01:21:42;;;;;;;14.18;5.70;;;;;;;;;;5054941;28;20097;-45
2022/05/23 01:24:16;;;;;;;6.47;2.45;;;;;;;;;;5042168;28;20576;-44
2022/05/23 01:26:42;;;;;;;7.35;2.88;;;;;;;;;;5036927;28;20033;-44
2022/05/23 01:29:12;;;;;;;3.38;2.10;;;;;;;;;;5054780;28;20021;-45
2022/05/23 01:31:39;;;;;;;2.45;2.03;;;;;;;;;;5036933;28;20029;-44
2022/05/23 01:34:05;;;;;;;4.50;2.10;;;;;;;;;;5054834;28;20440;-44
2022/05/23 01:36:31;;;;;;;6.60;2.70;;;;;;;;;;5054691;28;20465;-44
2022/05/23 01:39:00;;;;;;;4.30;1.67;;;;;;;;;;5054747;28;20086;-44
2022/05/23 01:41:26;;;;;;;2.22;1.40;;;;;;;;;;5054591;28;20021;-44
2022/05/23 01:43:53;;;;;;;3.30;1.70;;;;;;;;;;5054564;28;20031;-45
2022/05/23 01:46:20;;;;;;;2.55;1.40;;;;;;;;;;5054652;28;20025;-45
2022/05/23 01:48:46;;;;;;;5.18;2.10;;;;;;;;;;5054691;28;20025;-44
2022/05/23 01:51:13;;;;;;;6.60;1.98;;;;;;;;;;5054277;28;20025;-44
2022/05/23 01:53:39;;;;;;;4.68;1.45;;;;;;;;;;5053902;28;20039;-44
2022/05/23 01:56:05;;;;;;;2.92;2.03;;;;;;;;;;5054226;28;20025;-46
2022/05/23 02:01:17;;;;;;;3.67;1.75;;;;;;;;;;5054630;28;20455;-44
2022/05/23 02:03:44;;;;;;;2.63;1.42;;;;;;;;;;5054272;28;20104;-44
2022/05/23 02:06:10;;;;;;;3.20;1.20;;;;;;;;;;5054290;28;20021;-45
2022/05/23 02:08:37;;;;;;;4.20;1.60;;;;;;;;;;5054077;28;20025;-44
2022/05/23 02:11:05;;;;;;;3.05;1.38;;;;;;;;;;5054043;28;20516;-44
2022/05/23 02:13:33;;;;;;;4.13;1.50;;;;;;;;;;5053924;28;20064;-45
2022/05/23 02:15:59;;;;;;;7.88;3.78;;;;;;;;;;5053890;28;20484;-45
2022/05/23 02:18:25;;;;;;;12.75;8.10;;;;;;;;;;5053956;28;20033;-45
2022/05/23 02:20:51;;;;;;;5.68;4.43;;;;;;;;;;5053878;28;20036;-44
2022/05/23 02:23:18;;;;;;;3.72;2.33;;;;;;;;;;5053819;28;20487;-45
2022/05/23 02:25:44;;;;;;;4.85;1.83;;;;;;;;;;5053873;28;20029;-44
2022/05/23 02:28:10;;;;;;;3.63;1.55;;;;;;;;;;5053682;28;20021;-45
2022/05/23 02:30:36;;;;;;;4.00;1.33;;;;;;;;;;5053936;28;20024;-44
2022/05/23 02:33:02;;;;;;;2.92;1.67;;;;;;;;;;5053650;28;20441;-44
2022/05/23 02:35:28;;;;;;;8.88;1.70;;;;;;;;;;5053739;28;20139;-45
2022/05/23 02:37:54;;;;;;;4.47;1.38;;;;;;;;;;5053720;28;20052;-45
2022/05/23 02:40:20;;;;;;;3.28;1.45;;;;;;;;;;5053448;28;20396;-45
2022/05/23 02:42:46;;;;;;;7.05;2.00;;;;;;;;;;5053460;28;20461;-45
2022/05/23 02:45:12;;;;;;;5.57;1.95;;;;;;;;;;5053671;28;20021;-45
2022/05/23 02:47:39;;;;;;;16.27;2.90;;;;;;;;;;5053519;28;20436;-44
2022/05/23 02:50:06;;;;;;;12.82;3.70;;;;;;;;;;5053547;28;20052;-44
2022/05/23 02:52:35;;;;;;;7.68;2.78;;;;;;;;;;5053542;28;20025;-45
2022/05/23 02:55:01;;;;;;;6.20;1.80;;;;;;;;;;5035679;28;20507;-45
2022/05/23 02:57:27;;;;;;;7.53;1.80;;;;;;;;;;5053424;28;20457;-42
2022/05/23 02:59:53;;;;;;;3.70;1.50;;;;;;;;;;5053472;28;20041;-44
2022/05/23 03:05:04;;;;;;;7.85;2.05;;;;;;;;;;5053811;28;20078;-43
2022/05/23 03:07:30;;;;;;;5.50;2.42;;;;;;;;;;5053590;28;20025;-43
2022/05/23 03:09:56;;;;;;;4.57;2.42;;;;;;;;;;5053227;28;20029;-44
2022/05/23 03:12:23;;;;;;;9.75;2.83;;;;;;;;;;5053214;28;20052;-46
2022/05/23 03:14:49;;;;;;;7.32;2.40;;;;;;;;;;5053127;28;20040;-46
2022/05/23 03:17:16;;;;;;;3.63;2.15;;;;;;;;;;5053345;28;20534;-47
2022/05/23 03:19:42;;;;;;;5.10;2.50;;;;;;;;;;5053196;28;20404;-44
2022/05/23 03:27:39;;;;;;;5.47;2.42;;;;;;;;;;5053540;28;20032;-44
2022/05/23 03:30:06;;;;;;;2.97;1.88;;;;;;;;;;5053212;28;20496;-47
2022/05/23 03:32:33;;;;;;;5.75;1.92;;;;;;;;;;5053170;28;20379;-44
2022/05/23 03:34:59;;;;;;;5.03;2.08;;;;;;;;;;5052909;28;20499;-44
2022/05/23 03:37:25;;;;;;;6.50;1.70;;;;;;;;;;5052796;28;20083;-44
2022/05/23 03:39:52;;;;;;;5.25;1.73;;;;;;;;;;5052973;28;20029;-46
2022/05/23 03:42:18;;;;;;;6.88;1.75;;;;;;;;;;5053024;28;20044;-44
2022/05/23 03:44:44;;;;;;;6.55;1.70;;;;;;;;;;5053048;28;20053;-44
2022/05/23 03:47:10;;;;;;;3.30;2.08;;;;;;;;;;5052899;28;20473;-46
2022/05/23 03:49:38;;;;;;;6.78;1.52;;;;;;;;;;5052855;28;20029;-46
2022/05/23 03:52:05;;;;;;;5.25;2.03;;;;;;;;;;5052635;28;20028;-46
2022/05/23 03:54:31;;;;;;;4.95;1.80;;;;;;;;;;5052988;28;20037;-46
2022/05/23 03:57:00;;;;;;;2.97;1.63;;;;;;;;;;5052980;28;20053;-44
2022/05/23 03:59:27;;;;;;;6.50;1.60;;;;;;;;;;5052844;28;20033;-47
2022/05/23 04:01:56;;;;;;;5.10;1.58;;;;;;;;;;5052544;28;20031;-47
2022/05/23 04:04:23;;;;;;;4.20;1.73;;;;;;;;;;5052814;28;20034;-47
2022/05/23 04:06:49;;;;;;;10.73;4.55;;;;;;;;;;5052645;28;20099;-44
2022/05/23 04:09:15;;;;;;;5.93;2.70;;;;;;;;;;5052839;28;20025;-44
2022/05/23 04:11:42;;;;;;;11.23;6.70;;;;;;;;;;5052572;28;20049;-44
2022/05/23 04:14:08;;;;;;;18.50;7.50;;;;;;;;;;5052595;28;20115;-44
2022/05/23 04:16:34;;;;;;;13.52;8.27;;;;;;;;;;5055488;28;20570;-46
2022/05/23 04:19:04;;;;;;;12.85;5.63;;;;;;;;;;5056041;28;20037;-46
2022/05/23 04:21:31;;;;;;;9.13;4.32;;;;;;;;;;5055787;28;20100;-47
2022/05/23 04:23:57;;;;;;;5.40;2.95;;;;;;;;;;5055991;28;20033;-45
2022/05/23 04:26:23;;;;;;;4.82;2.40;;;;;;;;;;5056011;28;20477;-46
2022/05/23 04:28:49;;;;;;;6.53;2.60;;;;;;;;;;5056134;28;20052;-46
2022/05/23 04:31:15;;;;;;;6.15;2.35;;;;;;;;;;5055914;28;20025;-46
2022/05/23 04:36:26;;;;;;;3.95;1.85;;;;;;;;;;5055844;28;20071;-46
2022/05/23 04:38:52;;;;;;;3.95;1.65;;;;;;;;;;5055870;28;20037;-45
2022/05/23 04:41:19;;;;;;;3.22;2.33;;;;;;;;;;5055814;28;20049;-46
2022/05/23 04:43:45;;;;;;;2.45;1.50;;;;;;;;;;5055672;28;20033;-46
2022/05/23 04:46:11;;;;;;;4.70;1.38;;;;;;;;;;5055606;28;20087;-54
2022/05/23 04:51:24;;;;;;;9.18;6.47;;;;;;;;;;5055517;28;20036;-46
2022/05/23 04:53:53;;;;;;;8.43;3.45;;;;;;;;;;5055690;28;20532;-46
2022/05/23 04:56:20;;;;;;;9.40;3.40;;;;;;;;;;5053504;28;20017;-45
2022/05/23 04:58:46;;;;;;;5.22;3.50;;;;;;;;;;5055098;28;20381;-46
2022/05/23 05:01:12;;;;;;;7.95;1.40;;;;;;;;;;5055206;28;20032;-46
2022/05/23 05:03:38;;;;;;;2.83;0.82;;;;;;;;;;5054720;28;20024;-45
2022/05/23 05:06:05;;;;;;;2.38;1.00;;;;;;;;;;5055349;28;20502;-46
2022/05/23 05:08:33;;;;;;;4.72;1.98;;;;;;;;;;5053855;28;20423;-46
2022/05/23 05:11:01;;;;;;;2.95;1.13;;;;;;;;;;5055339;28;20087;-45
2022/05/23 05:13:28;;;;;;;4.22;1.55;;;;;;;;;;5055236;28;20440;-45
2022/05/23 05:16:00;;;;;;;5.13;1.52;;;;;;;;;;5055427;28;20361;-45
2022/05/23 05:18:26;;;;;;;4.15;1.20;;;;;;;;;;5055029;28;20024;-45
2022/05/23 05:20:53;;;;;;;3.92;1.73;;;;;;;;;;5054923;28;20033;-46
2022/05/23 05:23:20;;;;;;;4.93;1.00;;;;;;;;;;5054930;28;20037;-46
2022/05/23 05:25:51;;;;;;;3.55;1.50;;;;;;;;;;5054957;28;20104;-46
2022/05/23 05:28:17;;;;;;;3.77;1.47;;;;;;;;;;5053724;28;20026;-46
2022/05/23 05:30:45;;;;;;;4.18;1.65;;;;;;;;;;5054434;28;20258;-46
2022/05/23 05:33:13;;;;;;;7.03;1.77;;;;;;;;;;5054749;28;20025;-46
2022/05/23 05:35:39;;;;;;;2.13;0.85;;;;;;;;;;5054968;28;20107;-46
2022/05/23 05:38:17;;;;;;;2.40;0.90;;;;;;;;;;5054782;28;20370;-46
2022/05/23 05:40:45;;;;;;;3.00;1.50;;;;;;;;;;5042407;28;20433;-46
2022/05/23 05:43:12;;;;;;;2.60;1.20;;;;;;;;;;5054742;28;20353;-45
2022/05/23 05:45:43;;;;;;;2.28;0.80;;;;;;;;;;5054675;28;20457;-46
2022/05/23 05:48:09;;;;;;;1.65;0.68;;;;;;;;;;5054535;28;20028;-45
2022/05/23 05:50:37;;;;;;;1.85;0.88;;;;;;;;;;5054275;28;20036;-46
2022/05/23 05:53:06;;;;;;;1.35;0.80;;;;;;;;;;5054469;28;20044;-46
2022/05/23 05:55:32;;;;;;;4.05;0.93;;;;;;;;;;5054512;28;20026;-46
2022/05/23 05:57:59;;;;;;;2.30;1.00;;;;;;;;;;5053056;28;20384;-46
2022/05/23 06:00:26;;;;;;;2.75;1.15;;;;;;;;;;5054069;28;20183;-45
2022/05/23 06:02:52;;;;;;;1.65;0.90;;;;;;;;;;5054103;28;20024;-45
2022/05/23 06:05:18;;;;;;;4.80;0.75;;;;;;;;;;5054196;28;20032;-44
2022/05/23 06:12:59;;;;;;;3.30;0.90;;;;;;;;;;5053821;28;20032;-46
2022/05/23 06:15:25;;;;;;;2.58;0.90;;;;;;;;;;5054239;28;20017;-45
2022/05/23 06:17:53;;;;;;;3.67;0.70;;;;;;;;;;5053935;28;20033;-46
2022/05/23 06:20:22;;;;;;;6.70;1.73;;;;;;;;;;5053921;28;20041;-46
2022/05/23 06:22:50;;;;;;;5.32;1.00;;;;;;;;;;5053877;28;20029;-46
2022/05/23 06:25:16;;;;;;;5.60;1.02;;;;;;;;;;5054135;28;20066;-47
2022/05/23 06:27:42;;;;;;;4.90;1.42;;;;;;;;;;5053566;28;20021;-46
2022/05/23 06:30:10;;;;;;;1.88;0.90;;;;;;;;;;5053743;28;20108;-46
2022/05/23 06:32:37;;;;;;;3.92;1.20;;;;;;;;;;5053853;28;20075;-46
2022/05/23 06:35:07;;;;;;;5.15;1.55;;;;;;;;;;5053791;28;20443;-44
2022/05/23 06:37:35;;;;;;;3.10;1.45;;;;;;;;;;5053636;28;20029;-46
2022/05/23 06:40:01;;;;;;;4.70;0.90;;;;;;;;;;5053319;28;20072;-46
2022/05/23 06:42:27;;;;;;;2.42;0.80;;;;;;;;;;5053487;28;20024;-45
2022/05/23 06:44:53;;;;;;;3.80;0.63;;;;;;;;;;5053826;28;20042;-46
2022/05/23 06:47:20;;;;;;;3.97;0.63;;;;;;;;;;5052442;28;20024;-46
2022/05/23 06:49:46;;;;;;;0.63;0.43;;;;;;;;;;5051549;28;20029;-46
2022/05/23 06:52:15;;;;;;;1.67;0.90;;;;;;;;;;5050977;28;20519;-46
2022/05/23 06:54:41;;;;;;;1.42;0.70;;;;;;;;;;5053390;28;20029;-46
2022/05/23 06:57:09;;;;;;;1.83;0.60;;;;;;;;;;5053330;28;20096;-46
2022/05/23 06:59:36;;;;;;;4.50;0.70;;;;;;;;;;5053289;28;20036;-46
2022/05/23 07:02:02;;;;;;;2.70;0.70;;;;;;;;;;5053622;28;20106;-46
2022/05/23 07:12:19;;;;;;;4.00;0.65;;;;;;;;;;5053140;28;20033;-46
2022/05/23 07:12:47;;;;;;;2.22;0.60;;;;;;;;;;5053676;28;20044;-46
2022/05/23 07:15:13;;;;;;;4.18;0.65;;;;;;;;;;5053387;28;20029;-46
2022/05/23 07:17:39;;;;;;;4.32;0.90;;;;;;;;;;5053125;28;20059;-45
2022/05/23 07:20:12;;;;;;;1.30;0.60;;;;;;;;;;5052992;28;20041;-45
2022/05/23 07:22:38;;;;;;;2.25;0.55;;;;;;;;;;5052737;28;20153;-46
2022/05/23 07:25:06;;;;;;;2.08;0.65;;;;;;;;;;5053629;28;20079;-46
2022/05/23 07:27:32;;;;;;;2.60;0.60;;;;;;;;;;5053089;28;20025;-46
2022/05/23 07:29:58;;;;;;;1.13;0.60;;;;;;;;;;5052474;28;20052;-45
2022/05/23 07:32:24;;;;;;;1.25;0.60;;;;;;;;;;5052992;28;20023;-46
2022/05/23 07:34:50;;;;;;;2.38;0.70;;;;;;;;;;5052844;28;20059;-46
2022/05/23 07:37:16;;;;;;;5.38;1.08;;;;;;;;;;5053051;28;20479;-44
2022/05/23 07:39:43;;;;;;;1.27;0.63;;;;;;;;;;5052890;28;20041;-44
2022/05/23 07:42:09;;;;;;;3.08;0.80;;;;;;;;;;5053028;28;20366;-44
2022/05/23 07:44:36;;;;;;;1.73;0.60;;;;;;;;;;5052857;28;20090;-43
2022/05/23 07:47:05;;;;;;;5.13;1.13;;;;;;;;;;5052957;28;20021;-45
2022/05/23 07:49:31;;;;;;;2.97;1.10;;;;;;;;;;5051205;28;20068;-46
2022/05/23 07:51:57;;;;;;;5.43;2.75;;;;;;;;;;5056040;28;20028;-47
2022/05/23 08:02:40;;;;;;;65.75;37.28;;;;;;;;;;5056510;28;20032;-47
2022/05/23 08:05:07;;;;;;;7.40;2.30;;;;;;;;;;5056619;28;20146;-46
2022/05/23 08:07:34;;;;;;;2.85;1.50;;;;;;;;;;5056319;28;20024;-46
2022/05/23 08:10:00;;;;;;;5.50;2.67;;;;;;;;;;5055953;28;20100;-46
2022/05/23 08:12:27;;;;;;;10.45;5.38;;;;;;;;;;5056421;28;20044;-47
2022/05/23 08:14:53;;;;;;;36.55;21.15;;;;;;;;;;5056142;28;20019;-46
2022/05/23 08:17:20;;;;;;;23.38;9.07;;;;;;;;;;5056407;28;20024;-46
2022/05/23 08:19:47;;;;;;;3.55;1.40;;;;;;;;;;5055882;28;20087;-46
2022/05/23 08:22:14;;;;;;;2.72;0.80;;;;;;;;;;5056106;28;20025;-46
2022/05/23 08:24:40;;;;;;;1.55;0.95;;;;;;;;;;5052474;28;20440;-46
2022/05/23 08:27:06;;;;;;;2.22;0.93;;;;;;;;;;5053045;28;20023;-46
2022/05/23 08:29:32;;;;;;;3.70;1.23;;;;;;;;;;5055535;28;20021;-46
2022/05/23 08:31:59;;;;;;;3.67;0.85;;;;;;;;;;5055369;28;20025;-46
2022/05/23 08:34:27;;;;;;;1.92;0.77;;;;;;;;;;5054955;28;20031;-46
2022/05/23 08:36:54;;;;;;;2.92;0.80;;;;;;;;;;5055200;28;20021;-47
2022/05/23 08:39:21;;;;;;;6.25;3.90;;;;;;;;;;5055083;28;20064;-46
2022/05/23 08:41:48;;;;;;;6.00;3.08;;;;;;;;;;5055291;28;20052;-45
2022/05/23 08:44:26;;;;;;;34.97;22.33;;;;;;;;;;5054901;28;20039;-46
2022/05/23 08:47:02;;;;;;;6.80;2.95;;;;;;;;;;5050059;28;20114;-46
2022/05/23 08:49:45;;;;;;;2.30;1.50;;;;;;;;;;5051123;28;20021;-46
2022/05/23 08:52:17;;;;;;;4.47;0.90;;;;;;;;;;5050516;28;20041;-47
2022/05/23 08:54:43;;;;;;;2.47;1.45;;;;;;;;;;5054869;28;20025;-47
2022/05/23 08:57:15;;;;;;;2.88;1.33;;;;;;;;;;5055408;28;20479;-46
2022/05/23 08:59:43;;;;;;;3.00;1.50;;;;;;;;;;5054728;28;20487;-46
2022/05/23 09:02:19;;;;;;;4.20;2.33;;;;;;;;;;5054613;28;20111;-45
2022/05/23 09:04:45;;;;;;;25.33;14.82;;;;;;;;;;5052250;28;20021;-46
2022/05/23 09:07:14;;;;;;;22.05;13.15;;;;;;;;;;5054374;28;20025;-45
2022/05/23 09:09:40;;;;;;;6.03;2.97;;;;;;;;;;5054308;28;20083;-45
2022/05/23 09:12:12;;;;;;;4.32;1.75;;;;;;;;;;5054430;28;20056;-47
2022/05/23 09:14:38;;;;;;;4.78;1.40;;;;;;;;;;5051434;28;20025;-45
2022/05/23 09:17:07;;;;;;;4.28;2.75;;;;;;;;;;5054696;28;20029;-46
2022/05/23 09:19:44;;;;;;;5.60;3.05;;;;;;;;;;5054304;28;20033;-46
2022/05/23 09:22:13;;;;;;;5.88;2.85;;;;;;;;;;5053593;28;20120;-47
2022/05/23 09:24:42;;;;;;;4.03;0.90;;;;;;;;;;5054680;28;20473;-46
2022/05/23 09:27:17;;;;;;;3.80;0.90;;;;;;;;;;5055435;28;20025;-47
2022/05/23 09:29:43;;;;;;;5.15;1.42;;;;;;;;;;5054691;28;20040;-47
2022/05/23 09:32:10;;;;;;;4.20;2.03;;;;;;;;;;5055012;28;20025;-46
2022/05/23 09:34:44;;;;;;;12.52;6.63;;;;;;;;;;5054576;28;20025;-47
2022/05/23 09:37:28;;;;;;;21.77;13.25;;;;;;;;;;5054658;28;20388;-47
2022/05/23 09:39:59;;;;;;;13.38;7.80;;;;;;;;;;5054682;28;20120;-47
2022/05/23 09:49:00;;;;;;;9.02;5.00;;;;;;;;;;4990595;28;20034;-47
2022/05/23 09:51:26;;;;;;;2.72;1.70;;;;;;;;;;4988943;28;20045;-47
2022/05/23 09:53:54;;;;;;;5.75;2.60;;;;;;;;;;4986364;28;20053;-46
2022/05/23 09:56:29;;;;;;;3.97;1.60;;;;;;;;;;4983958;28;20019;-46
2022/05/23 09:58:56;;;;;;;2.38;1.13;;;;;;;;;;4981939;28;20034;-47
2022/05/23 10:01:33;;;;;;;7.38;1.52;;;;;;;;;;4983713;28;20038;-47
2022/05/23 10:03:59;;;;;;;6.30;0.98;;;;;;;;;;4980707;28;20018;-47
2022/05/23 10:06:48;;;;;;;2.60;0.75;;;;;;;;;;4982968;28;20060;-47
2022/05/23 10:09:31;;;;;;;3.55;1.45;;;;;;;;;;4983579;28;20383;-47
2022/05/23 10:12:04;;;;;;;1.55;1.10;;;;;;;;;;4983755;28;20384;-47
2022/05/23 10:14:56;;;;;;;2.75;1.23;;;;;;;;;;4982196;28;20065;-47
2022/05/23 10:17:26;;;;;;;1.48;0.80;;;;;;;;;;4983508;28;20051;-46
2022/05/23 10:19:53;;;;;;;2.55;1.48;;;;;;;;;;5028184;28;20488;-46
2022/05/23 10:22:27;;;;;;;2.67;0.73;;;;;;;;;;5053084;28;20021;-47
2022/05/23 10:25:00;;;;;;;3.13;1.02;;;;;;;;;;5052886;28;20579;-47
2022/05/23 10:27:32;;;;;;;3.80;1.60;;;;;;;;;;5052309;28;20104;-48
2022/05/23 10:30:00;;;;;;;8.35;4.18;;;;;;;;;;5052100;28;20017;-47
2022/05/23 10:32:35;;;;;;;3.95;1.45;;;;;;;;;;5052769;28;20488;-46
2022/05/23 10:35:22;;;;;;;6.30;3.55;;;;;;;;;;5053508;28;20028;-46
2022/05/23 10:37:50;;;;;;;2.58;1.15;;;;;;;;;;5036657;28;20037;-46
2022/05/23 10:43:05;;;;;;;4.30;0.85;;;;;;;;;;5054037;28;20086;-46
2022/05/23 10:45:36;;;;;;;3.95;2.20;;;;;;;;;;5053230;28;20033;-46
2022/05/23 10:48:21;;;;;;;2.72;1.00;;;;;;;;;;5051986;28;20028;-47
2022/05/23 10:51:07;;;;;;;4.22;1.98;;;;;;;;;;5051656;28;20029;-47
2022/05/23 10:53:39;;;;;;;9.23;1.70;;;;;;;;;;5050071;28;20033;-47
2022/05/23 10:56:20;;;;;;;2.15;0.80;;;;;;;;;;5052085;28;20053;-46
2022/05/23 10:58:50;;;;;;;5.07;1.10;;;;;;;;;;5052882;28;20033;-47
2022/05/23 11:01:17;;;;;;;2.88;0.70;;;;;;;;;;5053530;28;20040;-48
2022/05/23 11:04:02;;;;;;;2.33;1.83;;;;;;;;;;5053381;28;20025;-46
2022/05/23 11:06:38;;;;;;;2.70;0.95;;;;;;;;;;5053450;28;20021;-47
2022/05/23 11:09:04;;;;;;;6.70;1.15;;;;;;;;;;5053033;28;20021;-47
2022/05/23 11:11:36;;;;;;;2.60;0.82;;;;;;;;;;5053184;28;20049;-47
2022/05/23 11:14:26;;;;;;;1.92;0.80;;;;;;;;;;5053283;28;20017;-46
2022/05/23 11:16:58;;;;;;;2.38;0.80;;;;;;;;;;5053028;28;20439;-48
2022/05/23 11:19:33;;;;;;;3.50;0.88;;;;;;;;;;5052994;28;20048;-47
2022/05/23 11:22:19;;;;;;;4.30;0.80;;;;;;;;;;5052851;28;20029;-46
2022/05/23 11:24:50;;;;;;;3.38;0.68;;;;;;;;;;5054803;28;20040;-47
2022/05/23 11:35:49;;;;;;;3.10;1.48;;;;;;;;;;5057382;28;20044;-47
2022/05/23 11:38:16;;;;;;;4.72;1.20;;;;;;;;;;5057079;28;20021;-48
2022/05/23 11:40:54;;;;;;;2.95;1.40;;;;;;;;;;5056887;28;20503;-46
2022/05/23 11:43:23;;;;;;;4.05;0.68;;;;;;;;;;5057080;28;20452;-47
2022/05/23 11:46:04;;;;;;;2.63;0.82;;;;;;;;;;5056994;28;20441;-47
2022/05/23 11:48:45;;;;;;;2.28;0.80;;;;;;;;;;5038822;28;20419;-46
2022/05/23 11:51:11;;;;;;;;;;;;;;;;;;5056980;28;20143;-47
2022/05/23 11:53:39;;;;;;;3.25;1.52;;;;;;;;;;5056985;28;19934;-46
2022/05/23 11:56:07;;;;;;;2.78;1.10;;;;;;;;;;5056809;28;20099;-46
2022/05/23 11:58:36;;;;;;;3.45;1.48;;;;;;;;;;5057037;28;20161;-46
2022/05/23 12:01:18;;;;;;;2.60;0.93;;;;;;;;;;5056780;28;20116;-46
2022/05/23 12:03:48;;;;;;;1.88;1.02;;;;;;;;;;5056449;28;20021;-47
2022/05/23 12:06:18;;;;;;;3.00;0.85;;;;;;;;;;5056789;28;20021;-46
2022/05/23 12:08:59;;;;;;;3.10;1.70;;;;;;;;;;5056685;28;20024;-47
2022/05/23 12:11:29;;;;;;;1.83;1.42;;;;;;;;;;5056200;28;20084;-46
2022/05/23 12:13:58;;;;;;;3.30;1.60;;;;;;;;;;5056482;28;20028;-46
2022/05/23 12:16:36;;;;;;;5.50;2.20;;;;;;;;;;5056277;28;20427;-46
2022/05/23 12:19:05;;;;;;;3.47;1.83;;;;;;;;;;5056252;28;20048;-47
2022/05/23 12:21:38;;;;;;;3.67;1.48;;;;;;;;;;5056096;28;20028;-47
2022/05/23 12:24:24;;;;;;;5.43;1.70;;;;;;;;;;5056311;28;20033;-46
2022/05/23 12:26:53;;;;;;;4.95;2.75;;;;;;;;;;5056146;28;20048;-47
2022/05/23 12:29:24;;;;;;;4.93;2.28;;;;;;;;;;5055929;28;20021;-46
2022/05/23 12:32:16;;;;;;;6.13;2.13;;;;;;;;;;5056082;28;20032;-48
2022/05/23 12:34:44;;;;;;;2.70;1.25;;;;;;;;;;5043521;28;20055;-46
2022/05/23 12:37:15;;;;;;;7.00;2.80;;;;;;;;;;5054621;28;20376;-46
2022/05/23 12:39:55;;;;;;;2.63;1.50;;;;;;;;;;5052288;28;20561;-47
2022/05/23 12:42:24;;;;;;;3.15;1.75;;;;;;;;;;5056159;28;20025;-47
2022/05/23 12:44:50;;;;;;;3.47;1.70;;;;;;;;;;5056076;28;20427;-48
2022/05/23 12:47:20;;;;;;;2.67;1.58;;;;;;;;;;5055858;28;20028;-47
2022/05/23 12:49:55;;;;;;;3.10;1.42;;;;;;;;;;5054873;28;20431;-47
2022/05/23 12:52:39;;;;;;;4.93;2.55;;;;;;;;;;5055275;28;20025;-48
2022/05/23 12:55:08;;;;;;;3.55;1.42;;;;;;;;;;5056005;28;20025;-46
2022/05/23 12:57:50;;;;;;;3.90;1.42;;;;;;;;;;5055665;28;20121;-47
2022/05/23 13:00:24;;;;;;;2.08;1.50;;;;;;;;;;5055464;28;20047;-46
2022/05/23 13:02:56;;;;;;;3.60;2.35;;;;;;;;;;5056107;28;20052;-46
2022/05/23 13:05:26;;;;;;;4.05;2.20;;;;;;;;;;5055553;28;20061;-47
2022/05/23 13:07:55;;;;;;;4.77;1.67;;;;;;;;;;5055462;28;20021;-47
2022/05/23 13:10:21;;;;;;;2.88;1.48;;;;;;;;;;5055056;28;20052;-45
2022/05/23 13:13:01;;;;;;;5.68;2.88;;;;;;;;;;5055293;28;20050;-47
2022/05/23 13:15:28;;;;;;;4.38;3.03;;;;;;;;;;5055551;28;20025;-48
2022/05/23 13:22:05;;;;;;;3.63;1.80;;;;;;;;;;5055496;28;20021;-46
2022/05/23 13:23:29;;;;;;;3.47;1.40;;;;;;;;;;5055258;28;20036;-47
2022/05/23 13:25:55;;;;;;;5.93;3.17;;;;;;;;;;5054075;28;20048;-47
2022/05/23 13:28:22;;;;;;;9.75;2.20;;;;;;;;;;5055167;28;20049;-47
2022/05/23 13:30:49;;;;;;;3.30;1.40;;;;;;;;;;5054674;28;20107;-46
2022/05/23 13:33:26;;;;;;;5.90;1.85;;;;;;;;;;5054816;28;20029;-47
2022/05/23 13:36:01;;;;;;;7.25;4.30;;;;;;;;;;5054880;28;20017;-48
2022/05/23 13:38:31;;;;;;;6.10;1.40;;;;;;;;;;5054969;28;20066;-47
2022/05/23 13:40:58;;;;;;;3.40;1.10;;;;;;;;;;5054855;28;20040;-47
2022/05/23 13:43:26;;;;;;;6.15;1.60;;;;;;;;;;5054993;28;20071;-46
2022/05/23 13:46:01;;;;;;;4.43;1.13;;;;;;;;;;5054840;28;20110;-47
2022/05/23 13:48:32;;;;;;;4.32;1.25;;;;;;;;;;5053606;28;20029;-46
2022/05/23 13:51:01;;;;;;;10.93;5.10;;;;;;;;;;5054326;28;20594;-47
2022/05/23 13:53:34;;;;;;;4.07;1.98;;;;;;;;;;5054495;28;20033;-47
2022/05/23 13:56:02;;;;;;;4.18;1.27;;;;;;;;;;5053996;28;20036;-47
2022/05/23 13:58:30;;;;;;;2.58;1.15;;;;;;;;;;5054685;28;20100;-46
2022/05/23 14:00:59;;;;;;;4.20;1.05;;;;;;;;;;5054328;28;20250;-46
2022/05/23 14:03:25;;;;;;;4.28;1.70;;;;;;;;;;5054201;28;20053;-47
2022/05/23 14:05:53;;;;;;;6.85;1.83;;;;;;;;;;5054391;28;20044;-46
2022/05/23 14:08:33;;;;;;;4.95;1.35;;;;;;;;;;5053426;28;20025;-46
2022/05/23 14:11:00;;;;;;;6.00;1.48;;;;;;;;;;5053735;28;20056;-47
2022/05/23 14:13:31;;;;;;;7.10;2.55;;;;;;;;;;5054213;28;20099;-47
2022/05/23 14:15:58;;;;;;;4.38;1.52;;;;;;;;;;5054058;28;20082;-46
2022/05/23 14:18:27;;;;;;;2.80;1.00;;;;;;;;;;5053931;28;20027;-46
2022/05/23 14:20:53;;;;;;;1.88;0.88;;;;;;;;;;5053852;28;20036;-47
2022/05/23 14:23:31;;;;;;;3.13;0.93;;;;;;;;;;5053546;28;20542;-46
2022/05/23 14:25:58;;;;;;;3.92;1.42;;;;;;;;;;5051428;28;20029;-47
2022/05/23 14:28:30;;;;;;;13.60;3.85;;;;;;;;;;5053287;28;20013;-47
2022/05/23 14:31:04;;;;;;;7.47;1.92;;;;;;;;;;5051158;28;20116;-46
2022/05/23 14:33:47;;;;;;;6.55;1.58;;;;;;;;;;5053143;28;20013;-46
2022/05/23 14:36:21;;;;;;;9.20;3.53;;;;;;;;;;5050798;28;20025;-46
2022/05/23 14:38:47;;;;;;;8.32;5.13;;;;;;;;;;5053081;28;20472;-46
2022/05/23 14:41:21;;;;;;;53.80;31.45;;;;;;;;;;5052979;28;20037;-46
2022/05/23 14:43:56;;;;;;;20.88;13.18;;;;;;;;;;5050890;28;20017;-46
2022/05/23 14:46:26;;;;;;;39.28;19.40;;;;;;;;;;5052762;28;20040;-46
2022/05/23 14:48:54;;;;;;;17.38;9.70;;;;;;;;;;5053150;28;20368;-46
2022/05/23 14:51:26;;;;;;;30.85;15.43;;;;;;;;;;5053159;28;20469;-45
2022/05/23 14:56:43;;;;;;;40.28;26.90;;;;;;;;;;5051346;28;20086;-46
2022/05/23 15:02:02;;;;;;;19.33;13.55;;;;;;;;;;5051620;28;20035;-47
2022/05/23 15:04:29;;;;;;;14.07;6.70;;;;;;;;;;5053004;28;20025;-46
2022/05/23 15:06:56;;;;;;;15.23;11.75;;;;;;;;;;5052405;28;20025;-46
2022/05/23 15:09:22;;;;;;;4.30;1.95;;;;;;;;;;5046567;28;20035;-46
2022/05/23 15:11:49;;;;;;;6.05;2.40;;;;;;;;;;5047020;28;20048;-46
2022/05/23 15:14:16;;;;;;;5.88;3.80;;;;;;;;;;5048790;28;20127;-47
2022/05/23 15:16:42;;;;;;;6.50;3.75;;;;;;;;;;5048849;28;20097;-46
2022/05/23 15:19:09;;;;;;;3.72;2.05;;;;;;;;;;5049111;28;20033;-47
2022/05/23 15:21:41;;;;;;;2.17;1.42;;;;;;;;;;5048511;28;20098;-46
2022/05/23 15:24:10;;;;;;;6.55;1.95;;;;;;;;;;5045915;28;20037;-46
2022/05/23 15:26:38;;;;;;;4.05;1.48;;;;;;;;;;5048991;28;20025;-46
2022/05/23 15:29:04;;;;;;;7.25;1.70;;;;;;;;;;5048466;28;20147;-46
2022/05/23 15:31:32;;;;;;;3.80;1.60;;;;;;;;;;5048240;28;20044;-47
2022/05/23 15:33:58;;;;;;;4.15;1.20;;;;;;;;;;5045384;28;20025;-45
2022/05/23 15:36:24;;;;;;;2.70;1.20;;;;;;;;;;5048597;28;20030;-46
2022/05/23 15:38:50;;;;;;;3.17;1.05;;;;;;;;;;5049090;28;20031;-47
2022/05/23 15:41:17;;;;;;;3.40;1.05;;;;;;;;;;5048775;28;20119;-46
2022/05/23 15:43:44;;;;;;;4.43;1.33;;;;;;;;;;5048926;28;20119;-46
2022/05/23 15:46:15;;;;;;;3.13;0.90;;;;;;;;;;5048744;28;20388;-46
2022/05/23 15:48:44;;;;;;;4.45;0.90;;;;;;;;;;5048705;28;20083;-46
2022/05/23 15:51:12;;;;;;;4.22;0.90;;;;;;;;;;5046426;28;20063;-46
2022/05/23 15:53:38;;;;;;;3.85;0.80;;;;;;;;;;5048678;28;20028;-46
2022/05/23 15:56:07;;;;;;;3.55;0.90;;;;;;;;;;5048436;28;20024;-46
2022/05/23 15:58:34;;;;;;;2.15;0.88;;;;;;;;;;5047377;28;20130;-46
2022/05/23 16:01:00;;;;;;;3.55;1.50;;;;;;;;;;5043885;28;20040;-46